Time;durP1;ratioP1;P1;durP2;ratioP2;P2;SDS_P1;SDS_P2;PMS_P1;PMS_P2;Temp;Humidity;BMP_temperature;BMP_pressure;BME280_temperature;BME280_humidity;BME280_pressure;Samples;Min_cycle;Max_cycle;Signal;HPM_P1;HPM_P2
2022/10/14 00:00:18;;;;;;;42.30;38.00;;;;;;;8.69;81.08;98196.14;107047;1272;22343;31
2022/10/14 00:03:11;;;;;;;39.90;34.50;;;;;;;8.66;81.54;98196.17;106976;1280;22117;-87
2022/10/14 00:05:40;;;;;;;33.10;29.30;;;;;;;8.62;81.08;98195.60;106852;1309;22245;-87
2022/10/14 00:08:09;;;;;;;34.40;31.00;;;;;;;8.57;81.45;98192.83;107054;1294;23005;-91
2022/10/14 00:10:43;;;;;;;34.60;31.10;;;;;;;8.54;81.72;98185.13;107772;1282;22344;31
2022/10/14 00:13:16;;;;;;;37.10;33.50;;;;;;;8.51;81.94;98184.93;108705;1269;22282;31
2022/10/14 00:15:49;;;;;;;34.90;31.40;;;;;;;8.42;81.68;98184.49;108618;1264;22261;31
2022/10/14 00:18:23;;;;;;;29.00;26.00;;;;;;;8.41;81.97;98184.17;108785;1277;22279;31
2022/10/14 00:20:59;;;;;;;34.10;30.70;;;;;;;8.42;81.79;98176.06;108902;1274;22325;31
2022/10/14 00:23:33;;;;;;;33.60;30.10;;;;;;;8.40;82.16;98178.53;108832;1277;22695;31
2022/10/14 00:26:14;;;;;;;35.60;32.00;;;;;;;8.42;82.91;98172.72;108701;1264;22179;31
2022/10/14 00:28:48;;;;;;;39.80;35.80;;;;;;;8.39;82.84;98171.02;105087;1271;23702;-82
2022/10/14 00:31:17;;;;;;;36.00;32.40;;;;;;;8.42;83.29;98172.78;107037;1303;21724;-91
2022/10/14 00:33:47;;;;;;;32.60;29.50;;;;;;;8.50;83.35;98173.65;106691;1312;22185;-90
2022/10/14 00:36:17;;;;;;;32.60;29.50;;;;;;;8.57;83.06;98170.23;106856;1305;22132;-90
2022/10/14 00:38:46;;;;;;;33.20;29.80;;;;;;;8.67;83.42;98165.92;106755;1312;22213;-90
2022/10/14 00:41:29;;;;;;;32.80;29.50;;;;;;;8.78;82.88;98165.14;106772;1312;22207;-92
2022/10/14 00:44:26;;;;;;;30.00;27.20;;;;;;;8.85;82.96;98164.11;106592;1313;22776;-90
2022/10/14 00:46:55;;;;;;;32.70;29.60;;;;;;;8.89;82.93;98164.78;106793;1312;22188;-89
2022/10/14 00:49:28;;;;;;;33.50;30.20;;;;;;;8.90;83.56;98164.94;106928;1291;22150;-88
2022/10/14 00:52:05;;;;;;;35.90;32.20;;;;;;;8.85;83.71;98160.56;107084;1293;22840;-91
2022/10/14 00:54:42;;;;;;;35.80;31.00;;;;;;;8.86;83.68;98158.15;106834;1309;22190;-90
2022/10/14 00:57:10;;;;;;;34.00;30.40;;;;;;;8.93;83.63;98156.15;106627;1313;22161;-91
2022/10/14 00:59:40;;;;;;;32.30;29.00;;;;;;;9.00;83.61;98159.59;106848;1290;22268;-93
2022/10/14 01:02:14;;;;;;;33.40;29.80;;;;;;;9.07;83.69;98159.25;107375;1285;22626;31
2022/10/14 01:04:49;;;;;;;35.10;31.70;;;;;;;9.13;83.73;98160.39;108305;1278;22322;31
2022/10/14 01:07:39;;;;;;;36.10;32.70;;;;;;;9.18;83.78;98156.42;105061;1280;22310;31
2022/10/14 01:10:33;;;;;;;35.60;32.10;;;;;;;9.23;83.91;98155.40;107907;1280;22271;-88
2022/10/14 01:13:13;;;;;;;35.30;31.80;;;;;;;9.29;83.79;98150.77;104837;1281;22664;31
2022/10/14 01:16:08;;;;;;;34.30;30.80;;;;;;;9.38;83.97;98153.81;102627;1272;22262;-78
2022/10/14 01:19:02;;;;;;;33.90;30.50;;;;;;;9.42;83.97;98140.70;107909;1283;22211;31
2022/10/14 01:21:55;;;;;;;32.00;28.90;;;;;;;9.51;83.81;98149.16;107806;1280;22871;31
2022/10/14 01:24:49;;;;;;;34.90;31.40;;;;;;;9.49;83.79;98148.04;108580;1277;22235;31
2022/10/14 01:27:47;;;;;;;32.60;29.30;;;;;;;9.48;83.91;98145.64;108559;1275;22219;31
2022/10/14 01:30:49;;;;;;;32.50;29.10;;;;;;;9.46;83.84;98147.38;107588;1273;22313;31
2022/10/14 01:33:22;;;;;;;32.90;29.40;;;;;;;9.42;83.54;98146.73;104579;1286;22674;-79
2022/10/14 01:36:35;;;;;;;33.60;30.20;;;;;;;9.39;83.79;98143.20;108800;1268;23374;31
2022/10/14 01:39:16;;;;;;;34.20;31.10;;;;;;;9.37;83.95;98142.03;108331;1281;22297;31
2022/10/14 01:45:19;;;;;;;33.90;30.50;;;;;;;9.28;83.99;98133.46;87580;1307;23114;31
2022/10/14 01:55:10;;;;;;;33.20;29.80;;;;;;;9.11;84.61;98129.77;107754;1289;22426;31
2022/10/14 01:58:13;;;;;;;35.60;31.80;;;;;;;9.11;84.95;98131.38;107983;1282;22288;31
2022/10/14 02:31:37;;;;;;;32.50;29.50;;;;;;;9.57;85.58;98102.55;87206;1315;23178;31
2022/10/14 02:34:24;;;;;;;30.60;27.50;;;;;;;9.60;85.70;98100.16;107745;1284;22296;31
2022/10/14 02:43:44;;;;;;;30.30;27.30;;;;;;;9.85;85.71;98092.80;106479;1292;1011482;31
2022/10/14 02:46:21;;;;;;;32.40;29.20;;;;;;;9.91;86.06;98095.89;107201;1292;22468;31
2022/10/14 02:48:55;;;;;;;32.80;29.70;;;;;;;9.96;86.01;98097.70;106874;1286;22322;31
2022/10/14 02:51:28;;;;;;;31.40;28.50;;;;;;;9.99;85.91;98099.13;105788;1294;21973;-79
2022/10/14 02:54:01;;;;;;;31.00;28.00;;;;;;;10.03;86.10;98095.95;106729;1288;22427;31
2022/10/14 02:56:35;;;;;;;30.60;27.30;;;;;;;10.06;85.97;98086.27;98295;1287;22284;31
2022/10/14 02:59:08;;;;;;;37.30;31.10;;;;;;;10.15;86.01;98093.69;106959;1292;23898;-80
2022/10/14 03:01:43;;;;;;;33.80;30.20;;;;;;;10.08;85.81;98086.46;107239;1286;23370;31
2022/10/14 03:04:16;;;;;;;37.00;33.50;;;;;;;10.10;85.90;98096.56;102388;1286;22091;-80
2022/10/14 03:06:52;;;;;;;35.60;32.10;;;;;;;10.07;85.77;98096.48;106694;1286;22283;31
2022/10/14 03:09:22;;;;;;;33.10;29.90;;;;;;;10.05;85.78;98094.09;105795;1288;22116;-83
2022/10/14 03:11:55;;;;;;;33.00;28.30;;;;;;;10.08;85.76;98092.98;106518;1280;22262;-82
2022/10/14 03:14:29;;;;;;;30.00;27.10;;;;;;;10.12;86.03;98092.66;106413;1292;22299;31
2022/10/14 03:16:57;;;;;;;35.10;31.40;;;;;;;10.15;85.98;98092.41;98794;1283;22165;-87
2022/10/14 03:19:28;;;;;;;33.30;30.20;;;;;;;10.11;85.92;98092.55;105847;1297;22193;-85
2022/10/14 03:22:03;;;;;;;32.30;29.10;;;;;;;10.05;85.94;98089.04;105852;1286;24141;-88
2022/10/14 03:24:31;;;;;;;30.80;27.50;;;;;;;10.02;86.09;98088.86;105448;1304;22052;-78
2022/10/14 03:27:22;;;;;;;32.80;29.30;;;;;;;10.04;86.22;98090.83;106114;1285;22732;-84
2022/10/14 03:29:53;;;;;;;34.10;30.50;;;;;;;10.04;86.04;98084.30;105282;1318;22243;-84
2022/10/14 03:32:23;;;;;;;33.40;30.20;;;;;;;10.03;86.27;98080.39;105564;1323;22223;-88
2022/10/14 03:35:16;;;;;;;31.90;32.10;;;;;;;10.04;86.33;98076.89;106623;1288;22513;31
2022/10/14 03:37:46;;;;;;;29.90;27.10;;;;;;;10.03;86.45;98074.46;105587;1288;22104;-79
2022/10/14 03:40:16;;;;;;;32.40;28.80;;;;;;;10.06;86.43;98073.02;105594;1295;22059;-86
2022/10/14 03:42:44;;;;;;;30.70;27.70;;;;;;;10.10;86.49;98068.06;105882;1307;22151;-79
2022/10/14 03:45:14;;;;;;;26.70;24.40;;;;;;;10.16;86.50;98071.06;105701;1324;22285;-81
2022/10/14 03:47:44;;;;;;;29.40;26.60;;;;;;;10.20;86.70;98068.67;105680;1318;22062;-89
2022/10/14 03:50:11;;;;;;;31.60;28.80;;;;;;;10.20;86.51;98063.14;105695;1324;22262;-86
2022/10/14 03:52:46;;;;;;;31.00;27.10;;;;;;;10.21;86.29;98068.89;105913;1301;23001;-92
2022/10/14 03:55:28;;;;;;;30.10;27.20;;;;;;;10.24;86.33;98071.98;106123;1302;22185;-89
2022/10/14 03:57:57;;;;;;;27.40;24.90;;;;;;;10.25;86.25;98071.41;106099;1307;21927;-85
2022/10/14 04:00:34;;;;;;;29.50;26.60;;;;;;;10.25;86.16;98070.21;106404;1293;24334;31
2022/10/14 04:03:32;;;;;;;29.30;26.40;;;;;;;10.26;86.09;98064.94;106184;1292;22313;31
2022/10/14 04:06:00;;;;;;;30.20;27.20;;;;;;;10.21;86.06;98064.41;105581;1288;21892;-83
2022/10/14 04:08:34;;;;;;;29.10;26.10;;;;;;;10.14;86.38;98059.35;106176;1283;22205;31
2022/10/14 04:11:18;;;;;;;29.10;26.10;;;;;;;10.14;86.36;98064.52;106174;1295;25133;-80
2022/10/14 04:13:57;;;;;;;26.30;23.80;;;;;;;10.18;86.45;98064.39;105231;1288;22372;31
2022/10/14 04:16:32;;;;;;;26.40;23.80;;;;;;;10.22;86.15;98067.14;99872;1292;23874;31
2022/10/14 04:19:08;;;;;;;28.30;25.60;;;;;;;10.19;86.19;98064.91;102534;1303;22059;-89
2022/10/14 04:21:35;;;;;;;28.60;25.70;;;;;;;10.15;85.96;98063.36;105729;1322;22068;-86
2022/10/14 04:24:03;;;;;;;33.60;30.50;;;;;;;10.12;86.27;98061.85;105988;1302;22195;-89
2022/10/14 04:26:39;;;;;;;34.20;31.00;;;;;;;10.05;85.96;98065.07;105244;1324;22307;-91
2022/10/14 04:29:12;;;;;;;32.60;29.60;;;;;;;10.01;85.89;98063.30;105730;1303;22181;-90
2022/10/14 04:31:49;;;;;;;29.50;26.80;;;;;;;9.98;85.75;98059.73;105438;1318;22074;-90
2022/10/14 04:34:17;;;;;;;30.40;27.40;;;;;;;9.96;85.88;98056.14;106044;1307;22180;-90
2022/10/14 04:36:53;;;;;;;29.60;26.70;;;;;;;9.92;85.92;98058.58;106456;1289;23574;31
2022/10/14 04:39:28;;;;;;;30.80;27.90;;;;;;;9.85;85.72;98060.06;105795;1285;22238;-82
2022/10/14 04:41:57;;;;;;;33.10;29.60;;;;;;;9.76;85.68;98057.87;105455;1322;22132;-85
2022/10/14 04:44:25;;;;;;;31.80;28.50;;;;;;;9.68;85.92;98058.61;105510;1321;22211;-91
2022/10/14 04:46:54;;;;;;;27.20;24.60;;;;;;;9.64;86.05;98051.90;105622;1321;22194;-87
2022/10/14 04:49:24;;;;;;;27.80;25.10;;;;;;;9.62;85.73;98050.79;106085;1314;22233;-89
2022/10/14 04:52:14;;;;;;;27.30;24.80;;;;;;;9.60;85.96;98050.74;105684;1321;22237;-93
2022/10/14 04:54:49;;;;;;;;;;;;;;;9.54;85.84;98049.06;105611;1321;22285;-89
2022/10/14 04:57:20;;;;;;;29.90;27.20;;;;;;;9.45;85.66;98048.20;105581;1321;22225;-93
2022/10/14 04:59:48;;;;;;;28.60;25.50;;;;;;;9.35;86.05;98043.10;106333;1299;22063;-84
2022/10/14 05:02:22;;;;;;;28.40;25.60;;;;;;;9.29;85.89;98047.36;105453;1321;22108;-92
2022/10/14 05:04:56;;;;;;;26.60;23.90;;;;;;;9.26;86.30;98042.88;105546;1307;22429;-90
2022/10/14 05:07:24;;;;;;;28.10;25.30;;;;;;;9.22;86.39;98044.91;105777;1314;22166;-92
2022/10/14 05:09:55;;;;;;;31.80;27.80;;;;;;;9.17;86.41;98047.23;105420;1321;22091;-94
2022/10/14 05:12:34;;;;;;;30.50;27.40;;;;;;;9.17;86.72;98046.15;105821;1302;22983;-91
2022/10/14 05:15:04;;;;;;;30.20;27.30;;;;;;;9.20;86.90;98044.08;105815;1309;22193;-91
2022/10/14 05:17:38;;;;;;;28.90;26.00;;;;;;;9.25;86.97;98047.35;106140;1296;22090;-90
2022/10/14 05:20:07;;;;;;;30.20;27.40;;;;;;;9.32;87.02;98042.21;105681;1302;22160;-91
2022/10/14 05:22:35;;;;;;;27.40;24.70;;;;;;;9.42;87.02;98041.52;105418;1321;22136;-92
2022/10/14 05:25:04;;;;;;;29.00;26.10;;;;;;;9.50;86.85;98043.35;105467;1318;22172;-87
2022/10/14 05:27:32;;;;;;;31.30;28.60;;;;;;;9.57;87.33;98040.41;105497;1321;22685;-93
2022/10/14 05:30:01;;;;;;;34.90;31.70;;;;;;;9.64;87.16;98041.45;105249;1321;22205;-92
2022/10/14 05:32:29;;;;;;;32.50;29.50;;;;;;;9.68;87.23;98041.08;105498;1321;22160;-92
2022/10/14 05:35:04;;;;;;;29.30;26.30;;;;;;;9.75;87.45;98040.55;105341;1321;22273;-90
2022/10/14 05:37:36;;;;;;;29.10;25.80;;;;;;;9.84;87.32;98039.56;105082;1321;22857;-93
2022/10/14 05:40:05;;;;;;;30.10;27.40;;;;;;;9.91;87.43;98036.41;105173;1321;22075;-91
2022/10/14 05:42:35;;;;;;;27.80;25.20;;;;;;;9.96;87.33;98038.00;105339;1321;22099;-92
2022/10/14 05:45:04;;;;;;;28.50;25.90;;;;;;;10.00;87.43;98037.38;105472;1321;22170;-88
2022/10/14 05:47:33;;;;;;;31.40;26.60;;;;;;;10.04;87.63;98038.29;105381;1321;22229;-90
2022/10/14 05:50:10;;;;;;;31.40;27.80;;;;;;;10.11;87.39;98039.79;105227;1321;22638;-91
2022/10/14 05:52:39;;;;;;;27.10;24.50;;;;;;;10.20;87.54;98036.48;105483;1321;22219;-88
2022/10/14 05:55:13;;;;;;;27.70;24.90;;;;;;;10.31;87.75;98033.10;105503;1321;22226;-91
2022/10/14 05:58:49;;;;;;;33.00;27.50;;;;;;;10.41;87.76;98040.48;105323;1321;22170;-93
2022/10/14 06:02:17;;;;;;;31.20;28.10;;;;;;;10.54;87.70;98043.36;105625;1324;22255;-86
2022/10/14 06:04:53;;;;;;;29.50;26.70;;;;;;;10.61;87.60;98041.63;106080;1287;22191;-83
2022/10/14 06:07:29;;;;;;;27.20;24.40;;;;;;;10.68;87.79;98041.30;106045;1293;22045;-83
2022/10/14 06:10:02;;;;;;;28.40;25.40;;;;;;;10.77;87.84;98041.73;104071;1286;22374;-81
2022/10/14 06:12:37;;;;;;;29.20;26.60;;;;;;;10.85;87.70;98042.22;106195;1285;22226;31
2022/10/14 06:15:06;;;;;;;28.90;26.30;;;;;;;10.93;87.80;98046.08;105986;1293;22735;-87
2022/10/14 06:17:34;;;;;;;28.10;25.50;;;;;;;10.99;87.84;98044.94;105733;1285;22095;-87
2022/10/14 06:20:03;;;;;;;28.30;25.90;;;;;;;11.05;87.84;98042.52;105341;1323;22184;-89
2022/10/14 06:22:31;;;;;;;26.80;24.30;;;;;;;11.11;87.77;98046.19;105502;1322;22796;-89
2022/10/14 06:24:59;;;;;;;26.00;23.40;;;;;;;11.20;87.65;98047.65;105470;1323;22191;-88
2022/10/14 06:27:31;;;;;;;26.20;24.00;;;;;;;11.26;87.64;98046.16;105836;1314;22256;-91
2022/10/14 06:29:59;;;;;;;26.40;23.90;;;;;;;11.33;87.51;98046.52;105990;1314;22184;-84
2022/10/14 06:32:27;;;;;;;27.30;24.60;;;;;;;11.42;87.52;98053.30;105351;1316;22229;-92
2022/10/14 06:34:54;;;;;;;29.30;25.30;;;;;;;11.49;87.51;98051.00;105835;1314;22090;-91
2022/10/14 06:37:23;;;;;;;28.50;25.70;;;;;;;11.52;87.16;98053.75;105439;1323;22195;-91
2022/10/14 06:39:51;;;;;;;25.30;23.10;;;;;;;11.51;86.98;98050.26;105797;1314;22096;-91
2022/10/14 06:42:19;;;;;;;27.30;24.20;;;;;;;11.54;86.94;98052.48;105947;1314;22092;-91
2022/10/14 06:44:47;;;;;;;27.10;24.40;;;;;;;11.57;86.78;98050.14;106062;1309;21826;-90
2022/10/14 06:47:14;;;;;;;25.60;23.10;;;;;;;11.58;86.60;98052.63;106383;1305;22115;-90
2022/10/14 06:49:43;;;;;;;27.90;25.40;;;;;;;11.57;86.58;98050.52;106362;1309;22059;-90
2022/10/14 06:52:10;;;;;;;33.00;24.00;;;;;;;11.56;86.50;98051.90;106309;1306;22165;-89
2022/10/14 06:54:38;;;;;;;26.00;23.80;;;;;;;11.56;86.49;98048.98;106126;1314;22906;-91
2022/10/14 06:57:10;;;;;;;26.00;23.60;;;;;;;11.59;86.44;98048.70;106160;1302;22186;-90
2022/10/14 06:59:38;;;;;;;36.60;24.10;;;;;;;11.62;86.24;98048.31;105606;1323;22256;-88
2022/10/14 07:02:06;;;;;;;27.40;24.60;;;;;;;11.68;86.36;98051.05;105507;1322;22122;-90
2022/10/14 07:04:35;;;;;;;29.50;26.50;;;;;;;11.74;86.36;98054.28;105253;1323;22903;-91
2022/10/14 07:07:03;;;;;;;29.70;27.10;;;;;;;11.78;86.32;98056.67;105640;1319;22171;-91
2022/10/14 07:09:31;;;;;;;30.00;27.10;;;;;;;11.83;86.19;98057.64;105322;1322;22186;-91
2022/10/14 07:11:59;;;;;;;30.40;27.40;;;;;;;11.88;86.09;98056.61;105942;1305;22092;-91
2022/10/14 07:14:27;;;;;;;28.70;25.90;;;;;;;11.91;85.90;98053.56;105416;1324;22194;-89
2022/10/14 07:16:54;;;;;;;28.50;25.60;;;;;;;11.95;85.75;98054.52;105914;1291;22204;-87
2022/10/14 07:19:22;;;;;;;35.00;24.30;;;;;;;12.01;85.73;98056.00;105670;1320;22917;-86
2022/10/14 07:21:50;;;;;;;28.50;25.40;;;;;;;12.09;85.68;98058.52;105380;1321;22115;-89
2022/10/14 07:24:18;;;;;;;29.30;26.20;;;;;;;12.16;85.65;98056.27;105918;1299;22098;-89
2022/10/14 07:26:46;;;;;;;30.50;27.40;;;;;;;12.22;85.63;98057.84;105740;1314;22198;-88
2022/10/14 07:29:14;;;;;;;30.00;27.10;;;;;;;12.26;85.47;98057.02;105538;1321;22206;-88
2022/10/14 07:31:42;;;;;;;30.90;27.90;;;;;;;12.31;85.42;98058.77;105308;1321;22251;-88
2022/10/14 07:34:10;;;;;;;28.70;25.90;;;;;;;12.36;85.03;98053.47;105744;1314;22184;-89
2022/10/14 07:36:38;;;;;;;30.30;24.90;;;;;;;12.45;85.08;98054.98;105718;1313;22160;-86
2022/10/14 07:39:06;;;;;;;29.10;25.90;;;;;;;12.52;84.73;98055.86;105347;1321;22220;-89
2022/10/14 07:41:34;;;;;;;29.90;27.00;;;;;;;12.58;84.75;98059.83;105920;1314;22161;-88
2022/10/14 07:44:07;;;;;;;29.90;26.70;;;;;;;12.64;84.36;98057.45;105535;1321;22194;-86
2022/10/14 07:46:38;;;;;;;30.30;27.30;;;;;;;12.69;84.30;98059.71;105338;1321;22083;-86
2022/10/14 07:49:10;;;;;;;28.70;25.80;;;;;;;12.72;83.91;98062.45;105576;1315;22252;-88
2022/10/14 07:51:38;;;;;;;29.80;27.00;;;;;;;12.75;83.98;98060.38;105547;1321;22870;-87
2022/10/14 07:54:11;;;;;;;29.40;26.40;;;;;;;12.82;83.68;98065.94;105736;1315;22168;-86
2022/10/14 07:56:41;;;;;;;28.70;25.80;;;;;;;12.90;83.70;98063.30;105552;1320;22233;-90
2022/10/14 07:59:09;;;;;;;27.90;25.20;;;;;;;12.99;83.57;98059.52;105934;1306;22161;-90
2022/10/14 08:01:37;;;;;;;28.50;25.70;;;;;;;13.09;83.61;98061.24;105548;1321;22198;-88
2022/10/14 08:04:05;;;;;;;28.00;25.10;;;;;;;13.16;82.89;98051.80;105561;1321;22195;-90
2022/10/14 08:06:34;;;;;;;29.00;26.20;;;;;;;13.22;83.29;98053.86;105221;1322;22106;-88
2022/10/14 08:09:07;;;;;;;29.30;26.40;;;;;;;13.32;83.14;98056.44;105248;1321;22900;-90
2022/10/14 08:11:35;;;;;;;29.80;26.90;;;;;;;13.38;82.32;98056.60;105273;1321;22172;-89
2022/10/14 08:14:03;;;;;;;28.60;26.10;;;;;;;13.41;82.01;98055.36;105903;1314;22302;-87
2022/10/14 08:16:33;;;;;;;28.00;25.10;;;;;;;13.44;81.58;98060.02;104972;1324;22657;-89
2022/10/14 08:19:05;;;;;;;30.50;25.40;;;;;;;13.49;81.70;98060.44;105663;1317;22119;-90
2022/10/14 08:21:41;;;;;;;27.90;25.00;;;;;;;13.59;81.63;98059.55;105084;1321;22851;-91
2022/10/14 08:24:10;;;;;;;28.60;25.90;;;;;;;13.66;81.49;98061.16;105126;1321;22233;-90
2022/10/14 08:26:47;;;;;;;27.80;25.00;;;;;;;13.76;81.32;98065.82;105927;1313;22166;-88
2022/10/14 08:29:15;;;;;;;28.20;25.30;;;;;;;13.84;81.42;98067.95;105307;1321;23132;-91
2022/10/14 08:31:43;;;;;;;31.60;28.20;;;;;;;13.92;81.25;98060.59;105523;1314;22191;-90
2022/10/14 08:34:11;;;;;;;32.30;29.00;;;;;;;14.05;81.07;98063.77;105598;1303;22085;-92
2022/10/14 08:36:39;;;;;;;33.80;28.90;;;;;;;14.13;80.35;98060.70;105629;1314;22190;-91
2022/10/14 08:39:07;;;;;;;33.50;28.50;;;;;;;14.18;80.06;98059.30;105314;1321;22261;-89
2022/10/14 08:42:07;;;;;;;30.10;27.10;;;;;;;14.22;79.99;98055.23;105325;1321;22225;-89
2022/10/14 08:44:48;;;;;;;32.30;26.20;;;;;;;14.28;80.13;98051.52;105919;1314;22282;-87
2022/10/14 08:47:22;;;;;;;33.10;24.90;;;;;;;14.41;80.01;98058.23;105271;1321;22102;-88
2022/10/14 08:49:53;;;;;;;;;;;;;;;14.51;79.62;98054.16;105325;1321;22274;-89
2022/10/14 08:52:47;;;;;;;28.80;23.50;;;;;;;14.58;79.60;98052.75;105525;1320;23007;-87
2022/10/14 08:55:26;;;;;;;29.20;25.10;;;;;;;14.67;79.69;98053.06;105656;1314;22173;-89
2022/10/14 08:58:02;;;;;;;27.80;24.90;;;;;;;14.76;79.73;98041.85;105304;1321;22210;-89
2022/10/14 09:00:35;;;;;;;28.50;25.80;;;;;;;14.85;78.92;98040.03;105650;1301;22100;-88
2022/10/14 09:03:14;;;;;;;28.20;25.60;;;;;;;14.89;78.85;98039.48;105923;1299;22202;-88
2022/10/14 09:05:42;;;;;;;30.20;25.90;;;;;;;14.95;78.59;98047.13;105956;1306;22172;-88
2022/10/14 09:08:14;;;;;;;27.30;24.40;;;;;;;14.98;78.32;98045.85;105641;1314;22173;-86
2022/10/14 09:10:43;;;;;;;28.90;26.00;;;;;;;14.99;78.27;98047.91;105742;1314;22201;-85
2022/10/14 09:13:33;;;;;;;31.70;28.80;;;;;;;15.03;78.14;98051.87;105892;1315;22649;-79
2022/10/14 09:16:13;;;;;;;30.00;25.10;;;;;;;15.06;77.92;98054.22;105799;1314;22240;-90
2022/10/14 09:18:50;;;;;;;29.80;26.80;;;;;;;15.06;77.64;98050.81;105509;1321;22206;-88
2022/10/14 09:21:35;;;;;;;29.80;26.70;;;;;;;15.15;77.88;98055.41;105529;1316;22218;-89
2022/10/14 09:24:35;;;;;;;30.60;25.40;;;;;;;15.29;77.68;98056.83;105553;1316;22211;-90
2022/10/14 09:27:10;;;;;;;27.20;24.70;;;;;;;15.41;77.78;98054.21;105640;1314;22416;-87
2022/10/14 09:29:41;;;;;;;28.00;25.00;;;;;;;15.51;77.21;98053.51;105663;1314;22166;-86
2022/10/14 09:32:15;;;;;;;28.90;26.00;;;;;;;15.54;76.90;98058.16;105894;1314;22183;-88
2022/10/14 09:34:46;;;;;;;30.80;27.40;;;;;;;15.54;76.64;98057.08;105646;1314;22183;-87
2022/10/14 09:37:33;;;;;;;31.80;28.80;;;;;;;15.51;76.66;98057.34;105933;1314;22169;-89
2022/10/14 09:40:12;;;;;;;41.50;31.40;;;;;;;15.53;76.98;98055.30;105330;1321;22205;-85
2022/10/14 09:42:43;;;;;;;32.40;28.90;;;;;;;15.54;76.77;98056.59;105913;1309;22276;-89
2022/10/14 09:45:14;;;;;;;30.20;27.20;;;;;;;15.53;76.58;98057.48;105529;1321;22137;-88
2022/10/14 09:47:55;;;;;;;25.00;22.50;;;;;;;15.53;76.56;98059.95;105564;1303;22352;-88
2022/10/14 09:50:35;;;;;;;24.20;21.60;;;;;;;15.49;76.31;98061.81;105512;1320;22198;-85
2022/10/14 09:53:12;;;;;;;22.70;20.00;;;;;;;15.43;76.13;98062.67;105370;1321;22167;-85
2022/10/14 09:55:51;;;;;;;24.20;21.50;;;;;;;15.39;75.81;98065.85;105640;1314;22167;-88
2022/10/14 09:58:29;;;;;;;23.80;21.40;;;;;;;15.33;75.53;98063.97;105637;1314;22174;-86
2022/10/14 10:00:59;;;;;;;24.80;22.20;;;;;;;15.30;75.84;98065.02;105642;1309;22169;-88
2022/10/14 10:03:33;;;;;;;23.80;21.30;;;;;;;15.35;75.93;98064.52;105314;1321;22289;-85
2022/10/14 10:06:03;;;;;;;;;;;;;;;15.40;75.82;98063.73;105775;1309;222196;-86
2022/10/14 10:08:34;;;;;;;28.50;20.10;;;;;;;15.47;75.88;98060.04;105101;1321;22228;-84
2022/10/14 10:11:07;;;;;;;23.80;21.40;;;;;;;15.51;75.58;98062.99;105923;1299;22193;-88
2022/10/14 10:13:43;;;;;;;23.40;21.20;;;;;;;15.50;75.50;98065.42;105643;1314;22188;-88
2022/10/14 10:16:21;;;;;;;25.10;21.10;;;;;;;15.46;75.52;98063.71;105918;1314;22078;-86
2022/10/14 10:18:52;;;;;;;26.90;21.50;;;;;;;15.46;75.27;98060.52;105900;1309;22789;-86
2022/10/14 10:21:26;;;;;;;25.80;23.00;;;;;;;15.46;75.26;98056.48;105927;1314;22037;-86
2022/10/14 10:24:02;;;;;;;26.40;23.80;;;;;;;15.50;75.41;98056.81;105655;1314;22169;-87
2022/10/14 10:26:32;;;;;;;26.50;23.70;;;;;;;15.56;75.57;98052.48;105331;1321;22203;-87
2022/10/14 10:29:03;;;;;;;26.20;23.30;;;;;;;15.63;74.89;98054.21;105545;1321;22205;-89
2022/10/14 10:31:31;;;;;;;25.50;22.80;;;;;;;15.58;74.49;98050.30;105619;1315;22086;-89
2022/10/14 10:34:29;;;;;;;26.00;22.70;;;;;;;15.57;74.70;98047.56;105668;1295;22220;-90
2022/10/14 10:37:23;;;;;;;24.90;21.90;;;;;;;15.64;74.69;98044.28;105976;1314;22087;-88
2022/10/14 10:40:20;;;;;;;24.30;21.70;;;;;;;15.85;74.54;98044.96;105388;1321;22198;-88
2022/10/14 10:43:00;;;;;;;25.50;21.80;;;;;;;16.10;74.37;98045.34;105649;1306;22922;-86
2022/10/14 10:45:37;;;;;;;26.60;22.90;;;;;;;16.18;73.69;98048.76;105638;1308;22896;-87
2022/10/14 10:48:21;;;;;;;28.30;23.60;;;;;;;16.18;73.59;98043.23;105648;1314;22208;-88
2022/10/14 10:51:01;;;;;;;26.10;23.40;;;;;;;16.17;73.49;98045.98;105512;1321;22198;-88
2022/10/14 10:53:54;;;;;;;27.40;22.20;;;;;;;16.09;72.83;98045.08;105936;1299;22779;-88
2022/10/14 10:56:33;;;;;;;28.90;25.90;;;;;;;16.03;72.31;98045.93;105788;1314;22172;-88
2022/10/14 10:59:19;;;;;;;29.70;26.30;;;;;;;15.87;71.83;98037.33;105914;1305;22164;-89
2022/10/14 11:02:32;;;;;;;26.70;24.00;;;;;;;15.71;71.55;98038.21;105497;1321;22704;-89
2022/10/14 11:05:38;;;;;;;28.20;25.30;;;;;;;15.60;72.07;98034.16;104910;1322;22131;-90
2022/10/14 11:14:08;;;;;;;26.00;23.40;;;;;;;15.63;71.09;98027.69;104896;1322;22240;-90
2022/10/14 11:16:59;;;;;;;27.20;24.60;;;;;;;15.73;71.75;98028.26;104660;1331;22973;-88
2022/10/14 11:19:33;;;;;;;27.80;25.00;;;;;;;16.05;72.08;98024.56;104626;1333;22893;-89
2022/10/14 11:22:14;;;;;;;28.00;24.90;;;;;;;16.31;70.98;98017.70;104918;1308;22220;-88
2022/10/14 11:25:21;;;;;;;30.80;24.00;;;;;;;16.41;70.30;98016.71;104883;1323;22212;-88
2022/10/14 11:27:56;;;;;;;;;;;;;;;16.63;71.46;98009.80;104673;1331;22249;-90
2022/10/14 11:30:56;;;;;;;28.40;23.40;;;;;;;16.91;70.93;98008.31;104609;1332;22264;-86
2022/10/14 11:34:14;;;;;;;27.70;24.00;;;;;;;17.22;70.46;98011.05;104717;1314;22220;-90
2022/10/14 11:37:16;;;;;;;28.30;25.30;;;;;;;17.39;68.21;98009.32;104268;1331;22294;-91
2022/10/14 11:39:52;;;;;;;31.50;25.70;;;;;;;17.28;66.96;98007.48;104488;1320;22198;-90
2022/10/14 11:42:37;;;;;;;29.30;25.30;;;;;;;17.15;66.83;98005.39;104909;1317;22809;-91
2022/10/14 11:45:23;;;;;;;29.00;25.60;;;;;;;17.04;66.11;98014.02;105041;1308;22160;-88
2022/10/14 11:48:08;;;;;;;28.90;25.90;;;;;;;16.72;66.03;98006.09;104833;1322;22171;-90
2022/10/14 11:50:41;;;;;;;34.40;27.00;;;;;;;16.42;66.42;98009.63;104979;1314;22219;-89
2022/10/14 11:53:12;;;;;;;31.50;26.60;;;;;;;16.28;66.76;98002.91;104916;1322;22422;-90
2022/10/14 11:55:46;;;;;;;30.80;27.30;;;;;;;16.28;67.15;98008.18;104807;1330;23154;-90
2022/10/14 11:58:19;;;;;;;31.40;27.30;;;;;;;16.35;67.73;98000.73;104659;1328;22481;-89
2022/10/14 12:00:52;;;;;;;39.40;27.40;;;;;;;16.66;67.60;98000.90;104773;1329;23001;-90
2022/10/14 12:03:42;;;;;;;29.30;26.20;;;;;;;16.79;67.13;97995.70;105123;1312;23023;-91
2022/10/14 12:06:17;;;;;;;34.70;27.30;;;;;;;16.71;67.11;97998.02;104879;1329;22194;-89
2022/10/14 12:08:51;;;;;;;29.30;26.20;;;;;;;16.60;67.37;97997.34;104571;1330;22229;-90
2022/10/14 12:11:32;;;;;;;30.20;26.90;;;;;;;16.52;67.71;97995.68;105176;1321;22117;-90
2022/10/14 12:14:16;;;;;;;31.60;25.80;;;;;;;16.50;67.28;97992.63;106048;1299;21917;-83
2022/10/14 12:16:47;;;;;;;36.50;32.70;;;;;;;16.54;67.36;97992.63;106370;1298;22045;-83
2022/10/14 12:19:25;;;;;;;33.00;24.20;;;;;;;16.78;67.64;97987.08;106366;1298;22120;-90
2022/10/14 12:22:09;;;;;;;29.30;26.50;;;;;;;17.10;67.60;97982.95;105793;1321;22239;-88
2022/10/14 12:24:40;;;;;;;32.70;28.90;;;;;;;17.45;66.55;97978.63;105841;1321;22235;-88
2022/10/14 12:27:11;;;;;;;42.10;36.40;;;;;;;17.65;66.34;97979.25;105626;1321;22180;-92
2022/10/14 12:33:09;;;;;;;31.10;27.90;;;;;;;17.90;65.37;97979.61;106383;1283;22107;31
2022/10/14 12:35:45;;;;;;;38.00;34.30;;;;;;;17.75;65.57;97978.55;105899;1285;22860;-82
2022/10/14 12:38:18;;;;;;;30.80;27.20;;;;;;;17.50;65.86;97977.05;105537;1322;22257;-88
2022/10/14 12:40:48;;;;;;;27.40;24.60;;;;;;;17.31;65.76;97978.48;105309;1324;22849;-90
2022/10/14 12:43:25;;;;;;;39.60;35.50;;;;;;;17.12;65.37;97977.20;105967;1314;22070;-93
2022/10/14 12:46:00;;;;;;;30.00;27.00;;;;;;;16.89;66.12;97974.70;105667;1323;22252;-90
2022/10/14 12:48:32;;;;;;;41.30;37.20;;;;;;;16.79;65.87;97973.76;106204;1302;22791;-91
2022/10/14 12:51:14;;;;;;;42.20;37.70;;;;;;;16.63;66.45;97975.83;105940;1299;22177;-88